Riesel, Texas
Current Conditions -  °F | °C
As of 3:51 PM on Tuesday 21 Oct 2014 (Local Time) from KACT Reporting Station
Clear Clear  
Wind Chill: 82°   Ceiling: Unl
Heat Index: 82°   Visibility: 10mi
Dew Point: 46°   Wind: 8mph
Humidity: 28%   Direction: 90°E
Pressure: 30.01"   Gusts: NA
Location:  31.47°N, 96.92°W
Report Text: KACT 212051Z 09007KT 10SM CLR 28/08 A3001 RMK AO2 SLP158 T02780078 56024
Loading
Personal Weather Stations






























Interactive Weather Map
Tropical Storm Tracking
New forecast layout! Learn more

10-Day Weather Forecast

Advertisements
Track Severe Weather on mobile